createdAt,value
2023-02-21T00:02:18.902Z,34.58
2023-02-21T00:05:05.060Z,40.92
2023-02-21T00:07:52.379Z,38.17
2023-02-21T00:10:38.714Z,35.60
2023-02-21T00:13:24.459Z,36.90
2023-02-21T00:16:10.798Z,37.65
2023-02-21T00:18:57.556Z,38.65
2023-02-21T00:21:44.065Z,41.65
2023-02-21T00:24:32.265Z,43.85
2023-02-21T00:27:18.481Z,43.15
2023-02-21T00:30:04.607Z,40.50
2023-02-21T00:32:50.968Z,40.92
2023-02-21T00:35:36.793Z,48.25
2023-02-21T00:38:24.946Z,41.03
2023-02-21T00:41:12.719Z,40.33
2023-02-21T00:43:58.778Z,38.50
2023-02-21T00:46:45.096Z,43.97
2023-02-21T00:49:31.078Z,41.97
2023-02-21T00:52:17.033Z,45.38
2023-02-21T00:55:03.103Z,44.28
2023-02-21T00:57:49.186Z,46.83
2023-02-21T01:00:37.251Z,50.92
2023-02-21T01:03:23.570Z,46.60
2023-02-21T01:06:09.942Z,47.00
2023-02-21T01:08:55.713Z,57.95
2023-02-21T01:11:41.956Z,48.60
2023-02-21T01:14:28.614Z,45.97
2023-02-21T01:17:14.696Z,55.78
2023-02-21T01:20:01.529Z,49.75
2023-02-21T01:22:47.648Z,46.17
2023-02-21T01:25:33.879Z,53.70
2023-02-21T01:28:19.837Z,59.13
2023-02-21T01:31:05.762Z,45.35
2023-02-21T01:33:56.216Z,55.10
2023-02-21T01:36:42.169Z,44.70
2023-02-21T01:39:28.686Z,52.08
2023-02-21T01:42:15.063Z,43.45
2023-02-21T01:45:02.472Z,47.70
2023-02-21T01:47:48.902Z,55.70
2023-02-21T01:50:48.644Z,51.33
2023-02-21T01:53:36.389Z,47.40
2023-02-21T01:56:24.229Z,46.53
2023-02-21T01:59:12.423Z,48.88
2023-02-21T02:02:06.510Z,41.78
2023-02-21T02:04:53.318Z,45.53
2023-02-21T02:07:39.957Z,44.50
2023-02-21T02:13:11.634Z,45.95
2023-02-21T02:15:45.172Z,45.20
2023-02-21T02:18:19.073Z,48.38
2023-02-21T02:20:58.329Z,43.03
2023-02-21T02:26:11.562Z,52.30
2023-02-21T02:28:38.794Z,47.58
2023-02-21T02:31:19.045Z,48.40
2023-02-21T02:33:55.570Z,43.42
2023-02-21T02:36:27.908Z,41.88
2023-02-21T02:39:02.861Z,45.58
2023-02-21T02:41:39.736Z,44.40
2023-02-21T02:44:11.191Z,48.92
2023-02-21T02:46:40.298Z,46.38
2023-02-21T02:49:17.155Z,48.13
2023-02-21T02:51:44.615Z,53.50
2023-02-21T02:54:12.612Z,45.40
2023-02-21T02:56:41.302Z,49.20
2023-02-21T02:59:10.774Z,48.90
2023-02-21T03:01:44.284Z,46.33
2023-02-21T03:04:14.317Z,43.40
2023-02-21T03:07:00.956Z,46.33
2023-02-21T03:09:30.770Z,47.42
2023-02-21T03:12:06.482Z,44.42
2023-02-21T03:14:41.201Z,45.05
2023-02-21T03:17:11.765Z,50.13
2023-02-21T03:19:40.874Z,46.50
2023-02-21T03:22:10.544Z,47.20
2023-02-21T03:27:07.472Z,51.53
2023-02-21T03:29:59.854Z,47.90
2023-02-21T03:32:32.893Z,53.90
2023-02-21T03:35:02.576Z,45.53
2023-02-21T03:37:34.861Z,41.80
2023-02-21T03:40:02.435Z,41.03
2023-02-21T03:42:32.487Z,42.22
2023-02-21T03:44:59.752Z,46.90
2023-02-21T03:47:27.446Z,49.67
2023-02-21T03:49:55.370Z,45.53
2023-02-21T03:52:22.660Z,50.95
2023-02-21T03:54:50.613Z,41.75
2023-02-21T03:57:20.873Z,46.40
2023-02-21T03:59:50.435Z,42.72
2023-02-21T04:02:18.754Z,43.95
2023-02-21T04:04:48.675Z,54.80
2023-02-21T04:07:19.776Z,49.83
2023-02-21T04:09:48.286Z,53.42
2023-02-21T04:12:20.660Z,50.38
2023-02-21T04:14:48.597Z,52.28
2023-02-21T04:17:16.293Z,54.88
2023-02-21T04:19:44.710Z,52.50
2023-02-21T04:22:11.957Z,59.03
2023-02-21T04:24:40.004Z,46.28
2023-02-21T04:27:08.618Z,50.60
2023-02-21T04:29:39.094Z,52.65
2023-02-21T04:32:06.496Z,52.80
2023-02-21T04:34:34.694Z,57.78
2023-02-21T04:37:01.935Z,53.63
2023-02-21T04:39:29.842Z,51.80
2023-02-21T04:41:57.141Z,60.80
2023-02-21T04:44:24.338Z,59.33
2023-02-21T04:46:51.666Z,56.22
2023-02-21T04:49:19.021Z,59.47
2023-02-21T04:51:46.213Z,54.30
2023-02-21T04:54:14.140Z,65.45
2023-02-21T04:56:41.471Z,55.17
2023-02-21T04:59:08.846Z,59.50
2023-02-21T05:01:36.208Z,60.33
2023-02-21T05:04:03.981Z,57.00
2023-02-21T05:06:31.890Z,63.00
2023-02-21T05:08:59.649Z,60.47
2023-02-21T05:11:27.096Z,56.30
2023-02-21T05:13:54.494Z,63.40
2023-02-21T05:16:21.827Z,56.45
2023-02-21T05:18:49.334Z,59.40
2023-02-21T05:21:17.278Z,61.55
2023-02-21T05:23:55.934Z,58.22
2023-02-21T05:26:25.181Z,63.05
2023-02-21T05:28:52.826Z,59.05
2023-02-21T05:31:20.196Z,59.22
2023-02-21T05:33:47.494Z,64.35
2023-02-21T05:36:14.739Z,61.60
2023-02-21T05:38:46.308Z,64.78
2023-02-21T05:41:14.120Z,68.05
2023-02-21T05:43:43.441Z,60.47
2023-02-21T05:46:17.944Z,66.70
2023-02-21T05:48:45.427Z,66.57
2023-02-21T05:51:12.836Z,61.33
2023-02-21T05:53:40.135Z,64.88
2023-02-21T05:56:09.629Z,61.55
2023-02-21T05:58:37.893Z,61.72
2023-02-21T06:01:05.185Z,58.10
2023-02-21T06:03:33.203Z,59.70
2023-02-21T06:06:00.864Z,65.10
2023-02-21T06:08:28.193Z,63.47
2023-02-21T06:10:55.547Z,56.78
2023-02-21T06:13:22.864Z,59.03
2023-02-21T06:15:50.324Z,60.05
2023-02-21T06:18:17.666Z,58.58
2023-02-21T06:20:45.105Z,59.65
2023-02-21T06:23:12.462Z,54.42
2023-02-21T06:25:39.744Z,62.22
2023-02-21T06:28:07.020Z,62.72
2023-02-21T06:30:34.301Z,59.17
2023-02-21T06:33:01.620Z,59.72
2023-02-21T06:35:28.924Z,64.18
2023-02-21T06:37:56.215Z,62.22
2023-02-21T06:40:23.448Z,55.95
2023-02-21T06:42:51.098Z,58.15
2023-02-21T06:45:18.382Z,58.42
2023-02-21T06:47:45.771Z,66.05
2023-02-21T06:50:13.049Z,57.55
2023-02-21T06:52:40.342Z,64.97
2023-02-21T06:55:07.936Z,57.72
2023-02-21T06:57:35.210Z,63.85
2023-02-21T07:00:02.731Z,63.30
2023-02-21T07:02:30.020Z,62.88
2023-02-21T07:04:57.336Z,64.22
2023-02-21T07:07:24.706Z,63.05
2023-02-21T07:09:52.002Z,68.20
2023-02-21T07:12:19.179Z,64.97
2023-02-21T07:14:46.581Z,63.22
2023-02-21T07:17:13.866Z,65.90
2023-02-21T07:19:43.118Z,65.68
2023-02-21T07:22:10.365Z,63.67
2023-02-21T07:24:37.625Z,63.97
2023-02-21T07:27:05.106Z,61.17
2023-02-21T07:29:32.359Z,67.28
2023-02-21T07:31:59.833Z,63.92
2023-02-21T07:34:27.193Z,61.70
2023-02-21T07:36:54.418Z,66.63
2023-02-21T07:39:21.595Z,61.75
2023-02-21T07:41:48.851Z,61.75
2023-02-21T07:44:23.404Z,65.13
2023-02-21T07:46:50.661Z,64.43
2023-02-21T07:49:17.888Z,71.05
2023-02-21T07:51:45.130Z,73.15
2023-02-21T07:54:12.365Z,66.47
2023-02-21T07:56:44.165Z,68.82
2023-02-21T07:59:11.396Z,66.47
2023-02-21T08:01:38.661Z,66.50
2023-02-21T08:04:05.976Z,67.57
2023-02-21T08:06:34.940Z,69.97
2023-02-21T08:09:02.404Z,60.30
2023-02-21T08:11:29.646Z,64.97
2023-02-21T08:13:56.964Z,62.15
2023-02-21T08:16:24.795Z,64.47
2023-02-21T08:18:52.188Z,62.67
2023-02-21T08:21:19.611Z,64.40
2023-02-21T08:23:46.812Z,67.95
2023-02-21T08:26:14.097Z,62.20
2023-02-21T08:28:41.331Z,60.08
2023-02-21T08:31:08.626Z,59.90
2023-02-21T08:33:35.857Z,60.47
2023-02-21T08:36:03.122Z,59.33
2023-02-21T08:38:30.349Z,62.63
2023-02-21T08:40:57.854Z,67.28
2023-02-21T08:43:25.781Z,66.68
2023-02-21T08:45:53.026Z,61.03
2023-02-21T08:48:20.251Z,65.80
2023-02-21T08:50:47.541Z,62.25
2023-02-21T08:53:15.728Z,67.35
2023-02-21T08:55:43.017Z,64.10
2023-02-21T08:58:14.410Z,70.28
2023-02-21T09:00:41.817Z,61.30
2023-02-21T09:03:09.120Z,64.25
2023-02-21T09:05:36.444Z,59.00
2023-02-21T09:08:05.244Z,64.68
2023-02-21T09:10:34.152Z,63.88
2023-02-21T09:13:01.826Z,63.42
2023-02-21T09:15:29.125Z,57.22
2023-02-21T09:17:56.738Z,59.13
2023-02-21T09:20:25.107Z,52.63
2023-02-21T09:22:52.791Z,59.13
2023-02-21T09:25:23.026Z,58.03
2023-02-21T09:27:52.085Z,50.08
2023-02-21T09:30:23.669Z,56.03
2023-02-21T09:32:51.354Z,58.42
2023-02-21T09:35:18.996Z,56.30
2023-02-21T09:37:46.750Z,57.22
2023-02-21T09:40:36.715Z,51.85
2023-02-21T09:43:04.859Z,58.85
2023-02-21T09:45:33.893Z,51.70
2023-02-21T09:48:03.448Z,54.97
2023-02-21T09:50:34.453Z,56.35
2023-02-21T09:53:01.734Z,55.67
2023-02-21T09:55:39.747Z,54.97
2023-02-21T09:58:11.848Z,54.92
2023-02-21T10:00:39.764Z,53.47
2023-02-21T10:03:13.157Z,53.35
2023-02-21T10:05:46.358Z,53.08
2023-02-21T10:08:16.627Z,56.38
2023-02-21T10:10:46.626Z,52.00
2023-02-21T10:13:27.962Z,53.50
2023-02-21T10:16:08.176Z,59.42
2023-02-21T10:18:48.410Z,50.83
2023-02-21T10:21:18.303Z,58.38
2023-02-21T10:23:46.940Z,51.70
2023-02-21T10:26:21.021Z,54.08
2023-02-21T10:28:48.357Z,50.63
2023-02-21T10:31:25.347Z,50.67
2023-02-21T10:33:52.740Z,52.70
2023-02-21T10:36:22.110Z,56.75
2023-02-21T10:39:07.947Z,58.47
2023-02-21T10:41:37.513Z,59.35
2023-02-21T10:44:18.461Z,54.05
2023-02-21T10:46:52.887Z,49.92
2023-02-21T10:49:31.087Z,52.08
2023-02-21T10:52:06.197Z,49.92
2023-02-21T10:54:35.268Z,51.08
2023-02-21T10:59:34.729Z,51.47
2023-02-21T11:02:02.939Z,51.83
2023-02-21T11:04:35.141Z,48.08
2023-02-21T11:07:05.898Z,49.70
2023-02-21T11:09:33.406Z,51.45
2023-02-21T11:12:03.045Z,51.17
2023-02-21T11:14:30.617Z,47.25
2023-02-21T11:17:15.206Z,48.17
2023-02-21T11:19:48.168Z,46.70
2023-02-21T11:22:16.345Z,49.95
2023-02-21T11:24:46.678Z,46.97
2023-02-21T11:27:14.242Z,44.55
2023-02-21T11:29:48.301Z,49.30
2023-02-21T11:32:26.586Z,47.53
2023-02-21T11:35:01.969Z,44.13
2023-02-21T11:37:29.521Z,47.85
2023-02-21T11:39:56.802Z,48.10
2023-02-21T11:42:26.952Z,53.28
2023-02-21T11:45:06.262Z,58.03
2023-02-21T11:47:39.300Z,56.10
2023-02-21T11:50:09.108Z,53.67
2023-02-21T11:52:51.938Z,53.80
2023-02-21T11:55:21.830Z,58.92
2023-02-21T11:57:49.220Z,58.50
2023-02-21T12:00:25.670Z,56.13
2023-02-21T12:03:10.841Z,58.17
2023-02-21T12:05:42.656Z,65.13
2023-02-21T12:08:28.611Z,69.18
2023-02-21T12:11:14.763Z,76.53
2023-02-21T12:13:42.341Z,73.00
2023-02-21T12:16:27.770Z,70.68
2023-02-21T12:19:07.504Z,71.75
2023-02-21T12:21:47.055Z,79.22
2023-02-21T12:24:31.343Z,73.30
2023-02-21T12:27:17.924Z,82.07
2023-02-21T12:29:45.221Z,74.25
2023-02-21T12:32:32.700Z,74.15
2023-02-21T12:35:19.129Z,77.38
2023-02-21T12:38:04.636Z,78.15
2023-02-21T12:40:47.451Z,75.85
2023-02-21T12:43:17.965Z,66.88
2023-02-21T12:45:45.125Z,66.72
2023-02-21T12:48:15.304Z,64.28
2023-02-21T12:50:44.457Z,60.33
2023-02-21T12:53:17.048Z,65.78
2023-02-21T12:55:49.475Z,71.78
2023-02-21T12:58:26.670Z,73.57
2023-02-21T13:01:02.657Z,59.08
2023-02-21T13:03:50.037Z,56.45
2023-02-21T13:06:31.414Z,54.25
2023-02-21T13:09:08.466Z,48.05
2023-02-21T13:11:38.702Z,46.00
2023-02-21T13:14:10.484Z,40.67
2023-02-21T13:16:37.771Z,38.08
2023-02-21T13:19:07.701Z,40.70
2023-02-21T13:21:34.958Z,39.35
2023-02-21T13:24:31.804Z,34.33
2023-02-21T13:26:59.130Z,37.15
2023-02-21T13:29:31.032Z,32.00
2023-02-21T13:32:09.594Z,32.75
2023-02-21T13:34:45.610Z,34.08
2023-02-21T13:37:17.953Z,37.00
2023-02-21T13:39:46.336Z,34.72
2023-02-21T13:42:18.044Z,33.92
2023-02-21T13:44:50.077Z,29.98
2023-02-21T13:47:21.349Z,30.88
2023-02-21T13:49:50.633Z,30.95
2023-02-21T13:55:03.778Z,29.85
2023-02-21T13:57:32.321Z,31.20
2023-02-21T13:59:59.699Z,31.15
2023-02-21T14:02:33.625Z,34.20
2023-02-21T14:05:03.007Z,27.17
2023-02-21T14:09:57.490Z,28.52
2023-02-21T14:12:26.519Z,29.00
2023-02-21T14:15:06.671Z,32.13
2023-02-21T14:17:34.002Z,30.38
2023-02-21T14:20:01.770Z,39.47
2023-02-21T14:22:30.159Z,52.53
2023-02-21T14:25:08.579Z,50.90
2023-02-21T14:27:37.352Z,53.45
2023-02-21T14:30:13.853Z,51.08
2023-02-21T14:32:51.674Z,49.25
2023-02-21T14:35:24.898Z,53.72
2023-02-21T14:37:53.069Z,54.88
2023-02-21T14:40:24.178Z,49.05
2023-02-21T14:43:07.410Z,45.05
2023-02-21T14:45:53.734Z,49.67
2023-02-21T14:48:21.067Z,50.08
2023-02-21T14:50:51.424Z,52.88
2023-02-21T14:53:48.173Z,58.20
2023-02-21T14:56:21.336Z,61.58
2023-02-21T14:59:04.026Z,59.05
2023-02-21T15:01:49.988Z,54.10
2023-02-21T15:04:24.632Z,56.38
2023-02-21T15:07:10.602Z,54.45
2023-02-21T15:09:37.994Z,52.38
2023-02-21T15:12:09.223Z,59.28
2023-02-21T15:14:40.913Z,56.03
2023-02-21T15:17:17.880Z,52.92
2023-02-21T15:19:45.211Z,47.58
2023-02-21T15:22:16.897Z,49.72
2023-02-21T15:25:02.735Z,43.70
2023-02-21T15:27:29.967Z,45.63
2023-02-21T15:30:15.245Z,44.78
2023-02-21T15:32:43.280Z,46.05
2023-02-21T15:35:16.722Z,50.65
2023-02-21T15:37:45.585Z,45.38
2023-02-21T15:40:19.644Z,47.53
2023-02-21T15:42:48.565Z,45.50
2023-02-21T15:45:22.077Z,41.50
2023-02-21T15:47:49.877Z,46.75
2023-02-21T15:50:29.459Z,44.42
2023-02-21T15:52:56.823Z,39.20
2023-02-21T15:55:24.066Z,38.67
2023-02-21T15:58:14.550Z,38.28
2023-02-21T16:00:43.036Z,39.13
2023-02-21T16:03:28.961Z,32.95
2023-02-21T16:05:57.018Z,43.03
2023-02-21T16:08:24.263Z,44.55
2023-02-21T16:10:51.565Z,37.03
2023-02-21T16:13:19.189Z,40.83
2023-02-21T16:15:46.562Z,43.20
2023-02-21T16:18:18.438Z,45.97
2023-02-21T16:20:46.012Z,44.72
2023-02-21T16:23:13.291Z,43.10
2023-02-21T16:25:57.263Z,45.88
2023-02-21T16:28:24.905Z,44.00
2023-02-21T16:30:52.574Z,46.28
2023-02-21T16:33:19.946Z,51.78
2023-02-21T16:35:47.269Z,52.03
2023-02-21T16:38:18.734Z,51.88
2023-02-21T16:40:46.315Z,47.80
2023-02-21T16:43:21.546Z,53.22
2023-02-21T16:45:49.491Z,52.88
2023-02-21T16:48:20.833Z,53.05
2023-02-21T16:50:49.141Z,57.03
2023-02-21T16:53:17.225Z,60.20
2023-02-21T16:55:45.287Z,67.10
2023-02-21T16:58:20.622Z,67.43
2023-02-21T17:00:48.370Z,61.83
2023-02-21T17:03:15.640Z,65.45
2023-02-21T17:05:43.004Z,74.65
2023-02-21T17:08:10.591Z,76.70
2023-02-21T17:10:37.958Z,80.35
2023-02-21T17:13:05.292Z,77.90
2023-02-21T17:15:32.606Z,73.93
2023-02-21T17:18:00.605Z,85.45
2023-02-21T17:20:28.108Z,79.72
2023-02-21T17:22:56.096Z,85.20
2023-02-21T17:25:23.608Z,79.95
2023-02-21T17:27:51.184Z,86.70
2023-02-21T17:30:19.715Z,81.78
2023-02-21T17:32:47.159Z,87.93
2023-02-21T17:35:15.345Z,88.13
2023-02-21T17:37:43.371Z,91.05
2023-02-21T17:40:11.640Z,97.68
2023-02-21T17:42:39.936Z,97.65
2023-02-21T17:45:07.487Z,99.80
2023-02-21T17:47:35.710Z,98.85
2023-02-21T17:50:03.887Z,98.35
2023-02-21T17:52:31.671Z,98.65
2023-02-21T17:54:59.006Z,104.28
2023-02-21T17:57:26.246Z,91.53
2023-02-21T17:59:53.509Z,95.07
2023-02-21T18:02:20.979Z,104.20
2023-02-21T18:04:49.793Z,93.88
2023-02-21T18:07:17.196Z,102.43
2023-02-21T18:09:46.673Z,104.88
2023-02-21T18:12:13.931Z,100.38
2023-02-21T18:14:41.212Z,95.88
2023-02-21T18:17:08.520Z,115.35
2023-02-21T18:19:36.499Z,108.18
2023-02-21T18:22:06.044Z,95.13
2023-02-21T18:24:33.306Z,107.72
2023-02-21T18:27:00.570Z,91.28
2023-02-21T18:29:27.896Z,88.10
2023-02-21T18:31:55.311Z,96.32
2023-02-21T18:34:22.748Z,82.85
2023-02-21T18:36:50.774Z,83.25
2023-02-21T18:39:22.592Z,94.93
2023-02-21T18:41:49.959Z,84.45
2023-02-21T18:44:17.261Z,85.18
2023-02-21T18:46:55.249Z,88.43
2023-02-21T18:49:23.205Z,99.05
2023-02-21T18:51:50.549Z,90.45
2023-02-21T18:54:18.085Z,83.78
2023-02-21T18:56:52.444Z,99.88
2023-02-21T18:59:21.430Z,88.10
2023-02-21T19:01:49.725Z,90.40
2023-02-21T19:04:17.040Z,83.60
2023-02-21T19:06:44.739Z,66.95
2023-02-21T19:09:12.359Z,77.40
2023-02-21T19:11:39.657Z,69.15
2023-02-21T19:14:07.081Z,71.60
2023-02-21T19:16:34.435Z,62.85
2023-02-21T19:19:04.624Z,80.90
2023-02-21T19:21:32.216Z,64.00
2023-02-21T19:24:00.265Z,74.40
2023-02-21T19:26:31.320Z,66.90
2023-02-21T19:28:58.905Z,59.28
2023-02-21T19:31:26.291Z,64.32
2023-02-21T19:33:53.647Z,65.05
2023-02-21T19:36:22.170Z,73.63
2023-02-21T19:38:50.028Z,63.03
2023-02-21T19:41:18.102Z,62.30
2023-02-21T19:43:45.546Z,69.72
2023-02-21T19:46:19.556Z,62.13
2023-02-21T19:48:47.102Z,65.15
2023-02-21T19:51:15.942Z,59.67
2023-02-21T19:53:43.470Z,66.53
2023-02-21T19:56:10.831Z,69.25
2023-02-21T19:58:39.274Z,66.80
2023-02-21T20:01:07.705Z,67.77
2023-02-21T20:03:37.559Z,56.17
2023-02-21T20:06:09.469Z,57.80
2023-02-21T20:08:36.883Z,53.75
2023-02-21T20:11:04.882Z,53.80
2023-02-21T20:13:32.932Z,53.38
2023-02-21T20:16:00.956Z,52.15
2023-02-21T20:18:29.169Z,53.90
2023-02-21T20:20:57.181Z,46.28
2023-02-21T20:23:28.529Z,46.83
2023-02-21T20:25:57.500Z,44.17
2023-02-21T20:28:25.233Z,43.57
2023-02-21T20:30:53.091Z,43.42
2023-02-21T20:33:23.220Z,47.53
2023-02-21T20:36:05.255Z,49.25
2023-02-21T20:38:42.965Z,46.17
2023-02-21T20:41:15.734Z,64.82
2023-02-21T20:43:52.445Z,51.33
2023-02-21T20:46:23.445Z,46.58
2023-02-21T20:48:59.874Z,53.55
2023-02-21T20:51:42.952Z,53.17
2023-02-21T20:54:13.259Z,47.97
2023-02-21T20:56:41.763Z,52.70
2023-02-21T20:59:15.798Z,39.80
2023-02-21T21:01:48.512Z,52.88
2023-02-21T21:04:17.576Z,55.38
2023-02-21T21:06:45.155Z,58.42
2023-02-21T21:09:18.316Z,54.75
2023-02-21T21:11:46.865Z,60.28
2023-02-21T21:14:16.612Z,63.85
2023-02-21T21:16:47.723Z,57.08
2023-02-21T21:19:16.254Z,59.83
2023-02-21T21:21:43.750Z,65.70
2023-02-21T21:24:11.672Z,71.78
2023-02-21T21:26:45.124Z,70.60
2023-02-21T21:29:12.589Z,67.43
2023-02-21T21:31:39.982Z,75.90
2023-02-21T21:34:07.162Z,74.32
2023-02-21T21:36:36.457Z,75.10
2023-02-21T21:39:04.248Z,79.13
2023-02-21T21:41:34.320Z,80.03
2023-02-21T21:44:02.184Z,82.15
2023-02-21T21:46:32.718Z,82.18
2023-02-21T21:49:00.013Z,83.55
2023-02-21T21:51:28.680Z,83.30
2023-02-21T21:53:57.547Z,90.82
2023-02-21T21:56:27.281Z,82.75
2023-02-21T21:58:54.754Z,93.38
2023-02-21T22:01:22.049Z,80.85
2023-02-21T22:03:49.547Z,84.85
2023-02-21T22:06:18.662Z,80.97
2023-02-21T22:11:16.035Z,80.80
2023-02-21T22:13:45.464Z,84.88
2023-02-21T22:16:14.352Z,87.20
2023-02-21T22:18:42.051Z,83.88
2023-02-21T22:21:15.408Z,81.28
2023-02-21T22:23:44.190Z,88.45
2023-02-21T22:26:18.950Z,84.97
2023-02-21T22:28:46.170Z,81.97
2023-02-21T22:31:14.015Z,84.10
2023-02-21T22:33:42.069Z,78.43
2023-02-21T22:36:18.426Z,82.75
2023-02-21T22:38:50.424Z,81.95
2023-02-21T22:41:17.938Z,90.00
2023-02-21T22:43:52.026Z,91.28
2023-02-21T22:46:20.143Z,99.25
2023-02-21T22:48:48.039Z,89.65
2023-02-21T22:51:16.463Z,94.47
2023-02-21T22:53:50.141Z,96.35
2023-02-21T22:56:23.640Z,84.47
2023-02-21T22:58:51.820Z,83.30
2023-02-21T23:01:20.998Z,97.15
2023-02-21T23:06:17.054Z,94.72
2023-02-21T23:08:48.585Z,83.20
2023-02-21T23:11:22.229Z,89.63
2023-02-21T23:13:52.989Z,91.72
2023-02-21T23:16:22.550Z,100.30
2023-02-21T23:18:51.932Z,95.63
2023-02-21T23:21:23.562Z,102.40
2023-02-21T23:24:32.707Z,106.90
2023-02-21T23:27:25.746Z,102.15
2023-02-21T23:33:07.110Z,88.82
2023-02-21T23:35:34.915Z,95.10
2023-02-21T23:38:02.583Z,103.07
2023-02-21T23:40:29.948Z,98.95
2023-02-21T23:42:57.206Z,85.72
2023-02-21T23:45:25.323Z,87.38
2023-02-21T23:47:53.906Z,95.28
2023-02-21T23:50:23.632Z,96.68
2023-02-21T23:52:52.671Z,88.97
2023-02-21T23:55:24.945Z,99.20
2023-02-21T23:57:53.270Z,93.82
